sensor_id;sensor_type;location;lat;lon;timestamp;temperature;humidity
19168;DHT22;9716;53.114;18.040;2023-02-28T00:01:33;-2.30;99.90
19168;DHT22;9716;53.114;18.040;2023-02-28T00:04:02;-2.30;99.90
19168;DHT22;9716;53.114;18.040;2023-02-28T00:06:32;-2.30;99.90
19168;DHT22;9716;53.114;18.040;2023-02-28T00:09:01;-2.40;99.90
19168;DHT22;9716;53.114;18.040;2023-02-28T00:11:29;-2.40;99.90
19168;DHT22;9716;53.114;18.040;2023-02-28T00:13:58;-2.40;99.90
19168;DHT22;9716;53.114;18.040;2023-02-28T00:16:27;-2.40;99.90
19168;DHT22;9716;53.114;18.040;2023-02-28T00:18:55;-2.40;99.90
19168;DHT22;9716;53.114;18.040;2023-02-28T00:21:24;-2.50;99.90
19168;DHT22;9716;53.114;18.040;2023-02-28T00:23:53;-2.50;99.90
19168;DHT22;9716;53.114;18.040;2023-02-28T00:26:22;-2.50;99.90
19168;DHT22;9716;53.114;18.040;2023-02-28T00:28:51;-2.50;99.90
19168;DHT22;9716;53.114;18.040;2023-02-28T00:31:20;-2.50;99.90
19168;DHT22;9716;53.114;18.040;2023-02-28T00:33:49;-2.50;99.90
19168;DHT22;9716;53.114;18.040;2023-02-28T00:36:18;-2.50;99.90
19168;DHT22;9716;53.114;18.040;2023-02-28T00:38:47;-2.50;99.90
19168;DHT22;9716;53.114;18.040;2023-02-28T00:41:16;-2.50;99.90
19168;DHT22;9716;53.114;18.040;2023-02-28T00:43:45;-2.50;99.90
19168;DHT22;9716;53.114;18.040;2023-02-28T00:46:13;-2.60;99.90
19168;DHT22;9716;53.114;18.040;2023-02-28T00:48:42;-2.60;99.90
19168;DHT22;9716;53.114;18.040;2023-02-28T00:51:10;-2.60;99.90
19168;DHT22;9716;53.114;18.040;2023-02-28T00:53:38;-2.70;99.90
19168;DHT22;9716;53.114;18.040;2023-02-28T00:56:07;-2.60;99.90
19168;DHT22;9716;53.114;18.040;2023-02-28T00:58:37;-2.70;99.90
19168;DHT22;9716;53.114;18.040;2023-02-28T01:01:05;-2.70;99.90
19168;DHT22;9716;53.114;18.040;2023-02-28T01:03:34;-2.70;99.90
19168;DHT22;9716;53.114;18.040;2023-02-28T01:06:03;-2.70;99.90
19168;DHT22;9716;53.114;18.040;2023-02-28T01:08:31;-2.80;99.90
19168;DHT22;9716;53.114;18.040;2023-02-28T01:11:07;-2.80;99.90
19168;DHT22;9716;53.114;18.040;2023-02-28T01:13:37;-2.80;99.90
19168;DHT22;9716;53.114;18.040;2023-02-28T01:16:06;-2.80;99.90
19168;DHT22;9716;53.114;18.040;2023-02-28T01:18:36;-2.80;99.90
19168;DHT22;9716;53.114;18.040;2023-02-28T01:21:05;-2.80;99.90
19168;DHT22;9716;53.114;18.040;2023-02-28T01:23:34;-2.90;99.90
19168;DHT22;9716;53.114;18.040;2023-02-28T01:26:06;-2.90;99.90
19168;DHT22;9716;53.114;18.040;2023-02-28T01:28:35;-2.90;99.90
19168;DHT22;9716;53.114;18.040;2023-02-28T01:31:05;-2.90;99.90
19168;DHT22;9716;53.114;18.040;2023-02-28T01:33:34;-2.90;99.90
19168;DHT22;9716;53.114;18.040;2023-02-28T01:36:04;-2.90;99.90
19168;DHT22;9716;53.114;18.040;2023-02-28T01:38:33;-3.00;99.90
19168;DHT22;9716;53.114;18.040;2023-02-28T01:41:02;-3.00;99.90
19168;DHT22;9716;53.114;18.040;2023-02-28T01:43:39;-3.00;99.90
19168;DHT22;9716;53.114;18.040;2023-02-28T01:46:21;-3.00;99.90
19168;DHT22;9716;53.114;18.040;2023-02-28T01:48:53;-2.90;99.90
19168;DHT22;9716;53.114;18.040;2023-02-28T01:51:26;-3.00;99.90
19168;DHT22;9716;53.114;18.040;2023-02-28T01:54:01;-3.10;99.90
19168;DHT22;9716;53.114;18.040;2023-02-28T01:56:34;-3.10;99.90
19168;DHT22;9716;53.114;18.040;2023-02-28T01:59:03;-3.10;99.90
19168;DHT22;9716;53.114;18.040;2023-02-28T02:01:33;-3.10;99.90
19168;DHT22;9716;53.114;18.040;2023-02-28T02:04:03;-3.10;99.90
19168;DHT22;9716;53.114;18.040;2023-02-28T02:06:36;-3.10;99.90
19168;DHT22;9716;53.114;18.040;2023-02-28T02:09:05;-3.10;99.90
19168;DHT22;9716;53.114;18.040;2023-02-28T02:11:34;-3.10;99.90
19168;DHT22;9716;53.114;18.040;2023-02-28T02:14:24;-3.20;99.90
19168;DHT22;9716;53.114;18.040;2023-02-28T02:17:13;-3.20;99.90
19168;DHT22;9716;53.114;18.040;2023-02-28T02:26:21;-3.20;99.90
19168;DHT22;9716;53.114;18.040;2023-02-28T02:29:14;-3.20;99.90
19168;DHT22;9716;53.114;18.040;2023-02-28T02:32:11;-3.30;99.90
19168;DHT22;9716;53.114;18.040;2023-02-28T02:34:53;-3.30;99.90
19168;DHT22;9716;53.114;18.040;2023-02-28T02:37:38;-3.30;99.90
19168;DHT22;9716;53.114;18.040;2023-02-28T02:40:12;-3.30;99.90
19168;DHT22;9716;53.114;18.040;2023-02-28T02:42:51;-3.30;99.90
19168;DHT22;9716;53.114;18.040;2023-02-28T02:45:26;-3.30;99.90
19168;DHT22;9716;53.114;18.040;2023-02-28T02:47:57;-3.40;99.90
19168;DHT22;9716;53.114;18.040;2023-02-28T02:50:31;-3.30;99.90
19168;DHT22;9716;53.114;18.040;2023-02-28T02:53:03;-3.40;99.90
19168;DHT22;9716;53.114;18.040;2023-02-28T02:55:36;-3.40;99.90
19168;DHT22;9716;53.114;18.040;2023-02-28T02:58:08;-3.30;99.90
19168;DHT22;9716;53.114;18.040;2023-02-28T03:00:42;-3.40;99.90
19168;DHT22;9716;53.114;18.040;2023-02-28T03:03:12;-3.40;99.90
19168;DHT22;9716;53.114;18.040;2023-02-28T03:05:46;-3.40;99.90
19168;DHT22;9716;53.114;18.040;2023-02-28T03:08:15;-3.40;99.90
19168;DHT22;9716;53.114;18.040;2023-02-28T03:10:46;-3.40;99.90
19168;DHT22;9716;53.114;18.040;2023-02-28T03:13:37;-3.40;99.90
19168;DHT22;9716;53.114;18.040;2023-02-28T03:16:34;-3.40;99.90
19168;DHT22;9716;53.114;18.040;2023-02-28T03:19:23;-3.40;99.90
19168;DHT22;9716;53.114;18.040;2023-02-28T03:22:06;-3.50;99.90
19168;DHT22;9716;53.114;18.040;2023-02-28T03:24:41;-3.50;99.90
19168;DHT22;9716;53.114;18.040;2023-02-28T03:27:16;-3.50;99.90
19168;DHT22;9716;53.114;18.040;2023-02-28T03:29:51;-3.50;99.90
19168;DHT22;9716;53.114;18.040;2023-02-28T03:32:27;-3.50;99.90
19168;DHT22;9716;53.114;18.040;2023-02-28T03:35:02;-3.50;99.90
19168;DHT22;9716;53.114;18.040;2023-02-28T03:37:37;-3.50;99.90
19168;DHT22;9716;53.114;18.040;2023-02-28T03:40:09;-3.50;99.90
19168;DHT22;9716;53.114;18.040;2023-02-28T03:42:42;-3.50;99.90
19168;DHT22;9716;53.114;18.040;2023-02-28T03:45:13;-3.60;99.90
19168;DHT22;9716;53.114;18.040;2023-02-28T03:47:48;-3.60;99.90
19168;DHT22;9716;53.114;18.040;2023-02-28T03:50:19;-3.50;99.90
19168;DHT22;9716;53.114;18.040;2023-02-28T03:52:54;-3.60;99.90
19168;DHT22;9716;53.114;18.040;2023-02-28T03:55:30;-3.60;99.90
19168;DHT22;9716;53.114;18.040;2023-02-28T03:58:07;-3.60;99.90
19168;DHT22;9716;53.114;18.040;2023-02-28T04:00:42;-3.60;99.90
19168;DHT22;9716;53.114;18.040;2023-02-28T04:03:12;-3.60;99.90
19168;DHT22;9716;53.114;18.040;2023-02-28T04:05:49;-3.70;99.90
19168;DHT22;9716;53.114;18.040;2023-02-28T04:08:20;-3.70;99.90
19168;DHT22;9716;53.114;18.040;2023-02-28T04:10:55;-3.70;99.90
19168;DHT22;9716;53.114;18.040;2023-02-28T04:13:24;-3.80;99.90
19168;DHT22;9716;53.114;18.040;2023-02-28T04:15:53;-3.80;99.90
19168;DHT22;9716;53.114;18.040;2023-02-28T04:18:22;-3.80;99.90
19168;DHT22;9716;53.114;18.040;2023-02-28T04:20:50;-3.80;99.90
19168;DHT22;9716;53.114;18.040;2023-02-28T04:23:20;-3.80;99.90
19168;DHT22;9716;53.114;18.040;2023-02-28T04:25:49;-3.80;99.90
19168;DHT22;9716;53.114;18.040;2023-02-28T04:28:18;-3.80;99.90
19168;DHT22;9716;53.114;18.040;2023-02-28T04:30:46;-3.80;99.90
19168;DHT22;9716;53.114;18.040;2023-02-28T04:33:14;-3.80;99.90
19168;DHT22;9716;53.114;18.040;2023-02-28T04:35:43;-3.80;99.90
19168;DHT22;9716;53.114;18.040;2023-02-28T04:38:11;-3.80;99.90
19168;DHT22;9716;53.114;18.040;2023-02-28T04:40:41;-3.90;99.90
19168;DHT22;9716;53.114;18.040;2023-02-28T04:43:09;-3.90;99.90
19168;DHT22;9716;53.114;18.040;2023-02-28T04:45:38;-3.90;99.90
19168;DHT22;9716;53.114;18.040;2023-02-28T04:48:06;-3.90;99.90
19168;DHT22;9716;53.114;18.040;2023-02-28T04:50:34;-3.90;99.90
19168;DHT22;9716;53.114;18.040;2023-02-28T04:53:03;-3.90;99.90
19168;DHT22;9716;53.114;18.040;2023-02-28T04:55:31;-3.90;99.90
19168;DHT22;9716;53.114;18.040;2023-02-28T04:58:01;-3.80;99.90
19168;DHT22;9716;53.114;18.040;2023-02-28T05:00:30;-3.80;99.90
19168;DHT22;9716;53.114;18.040;2023-02-28T05:02:58;-3.80;99.90
19168;DHT22;9716;53.114;18.040;2023-02-28T05:05:27;-3.80;99.90
19168;DHT22;9716;53.114;18.040;2023-02-28T05:07:55;-3.80;99.90
19168;DHT22;9716;53.114;18.040;2023-02-28T05:10:24;-3.80;99.90
19168;DHT22;9716;53.114;18.040;2023-02-28T05:12:52;-3.90;99.90
19168;DHT22;9716;53.114;18.040;2023-02-28T05:15:22;-3.90;99.90
19168;DHT22;9716;53.114;18.040;2023-02-28T05:17:51;-3.90;99.90
19168;DHT22;9716;53.114;18.040;2023-02-28T05:20:19;-3.90;99.90
19168;DHT22;9716;53.114;18.040;2023-02-28T05:22:49;-3.90;99.90
19168;DHT22;9716;53.114;18.040;2023-02-28T05:25:20;-3.90;99.90
19168;DHT22;9716;53.114;18.040;2023-02-28T05:27:49;-3.90;99.90
19168;DHT22;9716;53.114;18.040;2023-02-28T05:30:18;-3.90;99.90
19168;DHT22;9716;53.114;18.040;2023-02-28T05:32:50;-3.90;99.90
19168;DHT22;9716;53.114;18.040;2023-02-28T05:35:19;-3.90;99.90
19168;DHT22;9716;53.114;18.040;2023-02-28T05:37:48;-3.80;99.90
19168;DHT22;9716;53.114;18.040;2023-02-28T05:40:17;-3.80;99.90
19168;DHT22;9716;53.114;18.040;2023-02-28T05:42:47;-3.80;99.90
19168;DHT22;9716;53.114;18.040;2023-02-28T05:45:16;-3.70;99.90
19168;DHT22;9716;53.114;18.040;2023-02-28T05:47:44;-3.70;99.90
19168;DHT22;9716;53.114;18.040;2023-02-28T05:50:15;-3.70;99.90
19168;DHT22;9716;53.114;18.040;2023-02-28T05:52:43;-3.60;99.90
19168;DHT22;9716;53.114;18.040;2023-02-28T05:55:11;-3.60;99.90
19168;DHT22;9716;53.114;18.040;2023-02-28T05:57:40;-3.50;99.90
19168;DHT22;9716;53.114;18.040;2023-02-28T06:00:13;-3.50;99.90
19168;DHT22;9716;53.114;18.040;2023-02-28T06:02:42;-3.50;99.90
19168;DHT22;9716;53.114;18.040;2023-02-28T06:05:15;-3.40;99.90
19168;DHT22;9716;53.114;18.040;2023-02-28T06:07:44;-3.40;99.90
19168;DHT22;9716;53.114;18.040;2023-02-28T06:10:13;-3.30;99.90
19168;DHT22;9716;53.114;18.040;2023-02-28T06:12:42;-3.30;99.90
19168;DHT22;9716;53.114;18.040;2023-02-28T06:15:12;-3.20;99.90
19168;DHT22;9716;53.114;18.040;2023-02-28T06:17:41;-3.00;99.90
19168;DHT22;9716;53.114;18.040;2023-02-28T06:20:11;-2.80;99.90
19168;DHT22;9716;53.114;18.040;2023-02-28T06:22:42;-2.60;99.90
19168;DHT22;9716;53.114;18.040;2023-02-28T06:25:11;-2.40;99.90
19168;DHT22;9716;53.114;18.040;2023-02-28T06:27:39;-2.10;99.90
19168;DHT22;9716;53.114;18.040;2023-02-28T06:30:11;-1.80;99.90
19168;DHT22;9716;53.114;18.040;2023-02-28T06:32:40;-1.40;99.90
19168;DHT22;9716;53.114;18.040;2023-02-28T06:35:09;-1.00;99.90
19168;DHT22;9716;53.114;18.040;2023-02-28T06:37:37;-0.70;99.90
19168;DHT22;9716;53.114;18.040;2023-02-28T06:40:10;-0.30;99.90
19168;DHT22;9716;53.114;18.040;2023-02-28T06:42:40;0.00;99.90
19168;DHT22;9716;53.114;18.040;2023-02-28T06:45:09;0.40;99.90
19168;DHT22;9716;53.114;18.040;2023-02-28T06:47:38;0.70;99.90
19168;DHT22;9716;53.114;18.040;2023-02-28T06:50:09;1.00;99.90
19168;DHT22;9716;53.114;18.040;2023-02-28T06:52:38;1.30;99.90
19168;DHT22;9716;53.114;18.040;2023-02-28T06:55:09;1.60;99.90
19168;DHT22;9716;53.114;18.040;2023-02-28T06:57:37;1.90;99.90
19168;DHT22;9716;53.114;18.040;2023-02-28T07:00:09;2.10;99.90
19168;DHT22;9716;53.114;18.040;2023-02-28T07:02:38;2.30;99.90
19168;DHT22;9716;53.114;18.040;2023-02-28T07:05:07;2.60;99.90
19168;DHT22;9716;53.114;18.040;2023-02-28T07:07:36;2.70;99.90
19168;DHT22;9716;53.114;18.040;2023-02-28T07:10:06;2.90;99.90
19168;DHT22;9716;53.114;18.040;2023-02-28T07:12:36;3.10;99.90
19168;DHT22;9716;53.114;18.040;2023-02-28T07:15:06;3.40;99.90
19168;DHT22;9716;53.114;18.040;2023-02-28T07:17:34;3.60;99.90
19168;DHT22;9716;53.114;18.040;2023-02-28T07:20:03;3.90;99.90
19168;DHT22;9716;53.114;18.040;2023-02-28T07:22:32;4.20;99.90
19168;DHT22;9716;53.114;18.040;2023-02-28T07:25:00;4.40;99.90
19168;DHT22;9716;53.114;18.040;2023-02-28T07:27:29;4.60;99.90
19168;DHT22;9716;53.114;18.040;2023-02-28T07:29:58;4.80;99.90
19168;DHT22;9716;53.114;18.040;2023-02-28T07:32:28;5.00;99.90
19168;DHT22;9716;53.114;18.040;2023-02-28T07:34:57;5.20;99.90
19168;DHT22;9716;53.114;18.040;2023-02-28T07:37:25;5.40;99.90
19168;DHT22;9716;53.114;18.040;2023-02-28T07:39:53;5.60;99.90
19168;DHT22;9716;53.114;18.040;2023-02-28T07:42:22;5.80;99.90
19168;DHT22;9716;53.114;18.040;2023-02-28T07:44:50;6.10;99.90
19168;DHT22;9716;53.114;18.040;2023-02-28T07:47:21;6.30;99.90
19168;DHT22;9716;53.114;18.040;2023-02-28T07:49:53;6.50;99.90
19168;DHT22;9716;53.114;18.040;2023-02-28T07:52:21;6.70;99.90
19168;DHT22;9716;53.114;18.040;2023-02-28T07:54:50;6.80;99.90
19168;DHT22;9716;53.114;18.040;2023-02-28T07:57:19;6.90;99.90
19168;DHT22;9716;53.114;18.040;2023-02-28T07:59:48;7.00;99.90
19168;DHT22;9716;53.114;18.040;2023-02-28T08:02:17;7.10;99.90
19168;DHT22;9716;53.114;18.040;2023-02-28T08:04:48;7.10;99.90
19168;DHT22;9716;53.114;18.040;2023-02-28T08:07:17;7.20;99.90
19168;DHT22;9716;53.114;18.040;2023-02-28T08:09:46;7.20;99.90
19168;DHT22;9716;53.114;18.040;2023-02-28T08:12:15;7.30;99.90
19168;DHT22;9716;53.114;18.040;2023-02-28T08:14:43;7.30;99.90
19168;DHT22;9716;53.114;18.040;2023-02-28T08:17:12;7.30;99.90
19168;DHT22;9716;53.114;18.040;2023-02-28T08:19:40;7.40;99.90
19168;DHT22;9716;53.114;18.040;2023-02-28T08:22:10;7.40;99.90
19168;DHT22;9716;53.114;18.040;2023-02-28T08:24:41;7.50;99.90
19168;DHT22;9716;53.114;18.040;2023-02-28T08:27:10;7.50;99.90
19168;DHT22;9716;53.114;18.040;2023-02-28T08:29:40;7.50;99.90
19168;DHT22;9716;53.114;18.040;2023-02-28T08:32:08;7.40;99.90
19168;DHT22;9716;53.114;18.040;2023-02-28T08:34:55;7.40;99.90
19168;DHT22;9716;53.114;18.040;2023-02-28T08:37:25;7.40;99.90
19168;DHT22;9716;53.114;18.040;2023-02-28T08:39:53;7.40;99.90
19168;DHT22;9716;53.114;18.040;2023-02-28T08:42:22;7.50;99.90
19168;DHT22;9716;53.114;18.040;2023-02-28T08:44:51;7.50;99.90
19168;DHT22;9716;53.114;18.040;2023-02-28T08:47:20;7.60;99.90
19168;DHT22;9716;53.114;18.040;2023-02-28T08:49:48;7.60;99.90
19168;DHT22;9716;53.114;18.040;2023-02-28T08:52:16;7.60;99.90
19168;DHT22;9716;53.114;18.040;2023-02-28T08:54:46;7.60;99.90
19168;DHT22;9716;53.114;18.040;2023-02-28T08:57:15;7.60;99.90
19168;DHT22;9716;53.114;18.040;2023-02-28T08:59:44;7.60;99.90
19168;DHT22;9716;53.114;18.040;2023-02-28T09:02:13;7.60;99.90
19168;DHT22;9716;53.114;18.040;2023-02-28T09:04:41;7.70;99.90
19168;DHT22;9716;53.114;18.040;2023-02-28T09:07:12;7.80;99.90
19168;DHT22;9716;53.114;18.040;2023-02-28T09:09:41;8.00;99.90
19168;DHT22;9716;53.114;18.040;2023-02-28T09:12:22;8.00;99.90
19168;DHT22;9716;53.114;18.040;2023-02-28T09:14:51;8.10;99.90
19168;DHT22;9716;53.114;18.040;2023-02-28T09:17:20;8.20;99.90
19168;DHT22;9716;53.114;18.040;2023-02-28T09:19:49;8.40;99.90
19168;DHT22;9716;53.114;18.040;2023-02-28T09:22:17;8.40;99.90
19168;DHT22;9716;53.114;18.040;2023-02-28T09:24:46;8.30;99.90
19168;DHT22;9716;53.114;18.040;2023-02-28T09:27:14;8.40;99.90
19168;DHT22;9716;53.114;18.040;2023-02-28T09:29:44;8.40;99.90
19168;DHT22;9716;53.114;18.040;2023-02-28T09:32:12;8.40;99.90
19168;DHT22;9716;53.114;18.040;2023-02-28T09:34:41;8.40;99.90
19168;DHT22;9716;53.114;18.040;2023-02-28T09:37:09;8.40;99.90
19168;DHT22;9716;53.114;18.040;2023-02-28T09:39:38;8.40;99.90
19168;DHT22;9716;53.114;18.040;2023-02-28T09:42:18;8.50;99.90
19168;DHT22;9716;53.114;18.040;2023-02-28T09:44:51;8.50;99.90
19168;DHT22;9716;53.114;18.040;2023-02-28T09:47:28;8.40;99.90
19168;DHT22;9716;53.114;18.040;2023-02-28T09:49:59;8.40;99.90
19168;DHT22;9716;53.114;18.040;2023-02-28T09:52:32;8.40;99.90
19168;DHT22;9716;53.114;18.040;2023-02-28T09:55:15;8.40;99.90
19168;DHT22;9716;53.114;18.040;2023-02-28T09:57:46;8.40;99.90
19168;DHT22;9716;53.114;18.040;2023-02-28T10:00:18;8.30;99.90
19168;DHT22;9716;53.114;18.040;2023-02-28T10:03:08;8.20;99.90
19168;DHT22;9716;53.114;18.040;2023-02-28T10:05:43;8.10;99.90
19168;DHT22;9716;53.114;18.040;2023-02-28T10:08:19;8.00;99.90
19168;DHT22;9716;53.114;18.040;2023-02-28T10:10:55;8.10;99.90
19168;DHT22;9716;53.114;18.040;2023-02-28T10:13:28;8.20;99.90
19168;DHT22;9716;53.114;18.040;2023-02-28T10:16:05;8.30;99.90
19168;DHT22;9716;53.114;18.040;2023-02-28T10:18:40;8.40;99.90
19168;DHT22;9716;53.114;18.040;2023-02-28T10:21:17;8.40;99.90
19168;DHT22;9716;53.114;18.040;2023-02-28T10:23:48;8.30;99.90
19168;DHT22;9716;53.114;18.040;2023-02-28T10:26:17;8.30;99.90
19168;DHT22;9716;53.114;18.040;2023-02-28T10:28:46;8.10;99.90
19168;DHT22;9716;53.114;18.040;2023-02-28T10:31:18;8.10;99.90
19168;DHT22;9716;53.114;18.040;2023-02-28T10:33:49;8.10;99.90
19168;DHT22;9716;53.114;18.040;2023-02-28T10:36:20;8.10;99.90
19168;DHT22;9716;53.114;18.040;2023-02-28T10:38:49;8.10;99.90
19168;DHT22;9716;53.114;18.040;2023-02-28T10:41:28;8.10;99.90
19168;DHT22;9716;53.114;18.040;2023-02-28T10:44:14;8.10;99.90
19168;DHT22;9716;53.114;18.040;2023-02-28T10:46:45;8.10;99.90
19168;DHT22;9716;53.114;18.040;2023-02-28T10:49:17;8.10;99.90
19168;DHT22;9716;53.114;18.040;2023-02-28T10:51:51;8.00;99.90
19168;DHT22;9716;53.114;18.040;2023-02-28T10:54:24;7.90;99.90
19168;DHT22;9716;53.114;18.040;2023-02-28T10:57:15;7.90;99.90
19168;DHT22;9716;53.114;18.040;2023-02-28T10:59:45;7.90;99.90
19168;DHT22;9716;53.114;18.040;2023-02-28T11:02:33;7.90;99.90
19168;DHT22;9716;53.114;18.040;2023-02-28T11:05:24;7.80;99.90
19168;DHT22;9716;53.114;18.040;2023-02-28T11:07:56;7.60;99.90
19168;DHT22;9716;53.114;18.040;2023-02-28T11:10:30;7.50;99.90
19168;DHT22;9716;53.114;18.040;2023-02-28T11:13:02;7.40;99.90
19168;DHT22;9716;53.114;18.040;2023-02-28T11:15:33;7.30;99.90
19168;DHT22;9716;53.114;18.040;2023-02-28T11:18:20;7.20;99.90
19168;DHT22;9716;53.114;18.040;2023-02-28T11:20:51;7.20;99.90
19168;DHT22;9716;53.114;18.040;2023-02-28T11:23:21;7.10;99.90
19168;DHT22;9716;53.114;18.040;2023-02-28T11:25:51;7.00;99.90
19168;DHT22;9716;53.114;18.040;2023-02-28T11:28:27;7.00;99.90
19168;DHT22;9716;53.114;18.040;2023-02-28T11:31:15;7.00;99.90
19168;DHT22;9716;53.114;18.040;2023-02-28T11:33:49;7.00;99.90
19168;DHT22;9716;53.114;18.040;2023-02-28T11:36:20;7.00;99.90
19168;DHT22;9716;53.114;18.040;2023-02-28T11:38:53;7.10;99.90
19168;DHT22;9716;53.114;18.040;2023-02-28T11:41:36;7.10;99.90
19168;DHT22;9716;53.114;18.040;2023-02-28T11:44:20;7.20;99.90
19168;DHT22;9716;53.114;18.040;2023-02-28T11:46:54;7.20;99.90
19168;DHT22;9716;53.114;18.040;2023-02-28T11:49:32;7.20;99.90
19168;DHT22;9716;53.114;18.040;2023-02-28T11:52:06;7.20;99.90
19168;DHT22;9716;53.114;18.040;2023-02-28T11:55:01;7.20;99.90
19168;DHT22;9716;53.114;18.040;2023-02-28T11:57:45;7.10;99.90
19168;DHT22;9716;53.114;18.040;2023-02-28T12:00:32;7.10;99.90
19168;DHT22;9716;53.114;18.040;2023-02-28T12:03:12;7.00;99.90
19168;DHT22;9716;53.114;18.040;2023-02-28T12:05:45;7.10;99.90
19168;DHT22;9716;53.114;18.040;2023-02-28T12:08:26;7.00;99.90
19168;DHT22;9716;53.114;18.040;2023-02-28T12:11:06;7.00;99.90
19168;DHT22;9716;53.114;18.040;2023-02-28T12:13:45;6.90;99.90
19168;DHT22;9716;53.114;18.040;2023-02-28T12:19:13;6.80;99.90
19168;DHT22;9716;53.114;18.040;2023-02-28T12:22:12;6.80;99.90
19168;DHT22;9716;53.114;18.040;2023-02-28T12:25:01;6.70;99.90
19168;DHT22;9716;53.114;18.040;2023-02-28T12:27:34;6.70;99.90
19168;DHT22;9716;53.114;18.040;2023-02-28T12:30:14;6.70;99.90
19168;DHT22;9716;53.114;18.040;2023-02-28T12:32:48;6.60;99.90
19168;DHT22;9716;53.114;18.040;2023-02-28T12:35:37;6.60;99.90
19168;DHT22;9716;53.114;18.040;2023-02-28T12:38:12;6.60;99.90
19168;DHT22;9716;53.114;18.040;2023-02-28T12:40:44;6.60;99.90
19168;DHT22;9716;53.114;18.040;2023-02-28T12:43:17;6.50;99.90
19168;DHT22;9716;53.114;18.040;2023-02-28T12:45:49;6.50;99.90
19168;DHT22;9716;53.114;18.040;2023-02-28T12:48:24;6.40;99.90
19168;DHT22;9716;53.114;18.040;2023-02-28T12:50:54;6.30;99.90
19168;DHT22;9716;53.114;18.040;2023-02-28T12:53:28;6.30;99.80
19168;DHT22;9716;53.114;18.040;2023-02-28T12:56:09;6.20;99.70
19168;DHT22;9716;53.114;18.040;2023-02-28T12:58:42;6.20;99.70
19168;DHT22;9716;53.114;18.040;2023-02-28T13:01:38;6.10;99.60
19168;DHT22;9716;53.114;18.040;2023-02-28T13:04:31;6.10;99.60
19168;DHT22;9716;53.114;18.040;2023-02-28T13:07:18;6.10;99.70
19168;DHT22;9716;53.114;18.040;2023-02-28T13:09:56;6.00;99.70
19168;DHT22;9716;53.114;18.040;2023-02-28T13:12:24;5.90;99.50
19168;DHT22;9716;53.114;18.040;2023-02-28T13:15:04;5.90;99.40
19168;DHT22;9716;53.114;18.040;2023-02-28T13:17:33;5.80;99.30
19168;DHT22;9716;53.114;18.040;2023-02-28T13:20:02;5.80;99.10
19168;DHT22;9716;53.114;18.040;2023-02-28T13:22:39;5.80;98.90
19168;DHT22;9716;53.114;18.040;2023-02-28T13:28:59;5.70;98.90
19168;DHT22;9716;53.114;18.040;2023-02-28T13:31:28;5.70;98.70
19168;DHT22;9716;53.114;18.040;2023-02-28T13:34:13;5.60;98.60
19168;DHT22;9716;53.114;18.040;2023-02-28T13:36:42;5.60;98.60
19168;DHT22;9716;53.114;18.040;2023-02-28T13:39:45;5.60;98.60
19168;DHT22;9716;53.114;18.040;2023-02-28T13:42:31;5.50;98.50
19168;DHT22;9716;53.114;18.040;2023-02-28T13:45:26;5.50;98.40
19168;DHT22;9716;53.114;18.040;2023-02-28T13:47:58;5.50;98.50
19168;DHT22;9716;53.114;18.040;2023-02-28T13:50:31;5.40;98.40
19168;DHT22;9716;53.114;18.040;2023-02-28T13:53:39;5.40;98.20
19168;DHT22;9716;53.114;18.040;2023-02-28T13:56:27;5.40;98.50
19168;DHT22;9716;53.114;18.040;2023-02-28T13:59:06;5.40;98.20
19168;DHT22;9716;53.114;18.040;2023-02-28T14:01:52;5.40;98.20
19168;DHT22;9716;53.114;18.040;2023-02-28T14:04:54;5.30;98.30
19168;DHT22;9716;53.114;18.040;2023-02-28T14:07:30;5.30;98.50
19168;DHT22;9716;53.114;18.040;2023-02-28T14:10:05;5.30;98.50
19168;DHT22;9716;53.114;18.040;2023-02-28T14:12:59;5.30;98.60
19168;DHT22;9716;53.114;18.040;2023-02-28T14:15:47;5.30;98.80
19168;DHT22;9716;53.114;18.040;2023-02-28T14:18:24;5.30;99.10
19168;DHT22;9716;53.114;18.040;2023-02-28T14:20:58;5.20;99.30
19168;DHT22;9716;53.114;18.040;2023-02-28T14:26:37;5.20;99.70
19168;DHT22;9716;53.114;18.040;2023-02-28T14:29:25;5.10;99.90
19168;DHT22;9716;53.114;18.040;2023-02-28T14:32:01;5.10;99.90
19168;DHT22;9716;53.114;18.040;2023-02-28T14:34:39;5.00;99.90
19168;DHT22;9716;53.114;18.040;2023-02-28T14:37:26;5.00;99.90
19168;DHT22;9716;53.114;18.040;2023-02-28T14:39:54;4.90;99.90
19168;DHT22;9716;53.114;18.040;2023-02-28T14:42:31;4.80;99.90
19168;DHT22;9716;53.114;18.040;2023-02-28T14:45:00;4.80;99.90
19168;DHT22;9716;53.114;18.040;2023-02-28T14:47:31;4.80;99.90
19168;DHT22;9716;53.114;18.040;2023-02-28T14:50:03;4.70;99.90
19168;DHT22;9716;53.114;18.040;2023-02-28T14:52:33;4.70;99.90
19168;DHT22;9716;53.114;18.040;2023-02-28T14:55:04;4.70;99.90
19168;DHT22;9716;53.114;18.040;2023-02-28T14:57:39;4.70;99.90
19168;DHT22;9716;53.114;18.040;2023-02-28T15:00:13;4.80;99.90
19168;DHT22;9716;53.114;18.040;2023-02-28T15:02:43;4.80;99.90
19168;DHT22;9716;53.114;18.040;2023-02-28T15:05:23;4.90;99.90
19168;DHT22;9716;53.114;18.040;2023-02-28T15:08:02;5.00;99.90
19168;DHT22;9716;53.114;18.040;2023-02-28T15:10:31;5.10;99.90
19168;DHT22;9716;53.114;18.040;2023-02-28T15:13:04;5.20;99.90
19168;DHT22;9716;53.114;18.040;2023-02-28T15:15:41;5.30;99.90
19168;DHT22;9716;53.114;18.040;2023-02-28T15:18:33;5.40;99.90
19168;DHT22;9716;53.114;18.040;2023-02-28T15:21:07;5.40;99.90
19168;DHT22;9716;53.114;18.040;2023-02-28T15:23:38;5.50;99.90
19168;DHT22;9716;53.114;18.040;2023-02-28T15:26:12;5.60;99.90
19168;DHT22;9716;53.114;18.040;2023-02-28T15:28:44;5.60;99.90
19168;DHT22;9716;53.114;18.040;2023-02-28T15:31:21;5.70;99.90
19168;DHT22;9716;53.114;18.040;2023-02-28T15:33:53;5.70;99.90
19168;DHT22;9716;53.114;18.040;2023-02-28T15:36:25;5.70;99.90
19168;DHT22;9716;53.114;18.040;2023-02-28T15:38:56;5.70;99.90
19168;DHT22;9716;53.114;18.040;2023-02-28T15:41:40;5.60;99.90
19168;DHT22;9716;53.114;18.040;2023-02-28T15:44:24;5.60;99.90
19168;DHT22;9716;53.114;18.040;2023-02-28T15:46:57;5.60;99.90
19168;DHT22;9716;53.114;18.040;2023-02-28T15:49:28;5.50;99.90
19168;DHT22;9716;53.114;18.040;2023-02-28T15:52:02;5.40;99.90
19168;DHT22;9716;53.114;18.040;2023-02-28T15:54:33;5.30;99.90
19168;DHT22;9716;53.114;18.040;2023-02-28T15:57:05;5.20;99.90
19168;DHT22;9716;53.114;18.040;2023-02-28T15:59:36;5.20;99.90
19168;DHT22;9716;53.114;18.040;2023-02-28T16:02:17;5.00;99.90
19168;DHT22;9716;53.114;18.040;2023-02-28T16:05:01;5.00;99.90
19168;DHT22;9716;53.114;18.040;2023-02-28T16:07:32;4.90;99.90
19168;DHT22;9716;53.114;18.040;2023-02-28T16:10:01;4.80;99.90
19168;DHT22;9716;53.114;18.040;2023-02-28T16:12:31;4.70;99.90
19168;DHT22;9716;53.114;18.040;2023-02-28T16:15:02;4.60;99.90
19168;DHT22;9716;53.114;18.040;2023-02-28T16:17:35;4.60;99.90
19168;DHT22;9716;53.114;18.040;2023-02-28T16:20:11;4.40;99.90
19168;DHT22;9716;53.114;18.040;2023-02-28T16:22:42;4.40;99.90
19168;DHT22;9716;53.114;18.040;2023-02-28T16:25:12;4.30;99.90
19168;DHT22;9716;53.114;18.040;2023-02-28T16:27:42;4.20;99.90
19168;DHT22;9716;53.114;18.040;2023-02-28T16:30:17;4.20;99.90
19168;DHT22;9716;53.114;18.040;2023-02-28T16:32:48;4.10;99.90
19168;DHT22;9716;53.114;18.040;2023-02-28T16:35:18;3.90;99.90